Flight Track Log - Related Links

Times and Time Zones

All times are in EDT time to prevent confusion due to time zone crossing. See the USC105 flight status page for this flight to view local times or setup timezone preferences in your user account.

Time Position Orientation Groundspeed Altitude Reporting Facility
EDT Latitude Longitude Course Direction KTS MPH feet Rate Location/Type
Wed 10:00:27 PM 39.8239 -82.9197 42° Northeast 113 130 1,200  Level Indianapolis Center
Wed 10:01:33 PM 39.8514 -82.8875 42° Northeast 119 137 2,300 970 Climbing Indianapolis Center
Wed 10:02:06 PM 39.8664 -82.8747 33° Northeast 118 136 2,800 984 Climbing Indianapolis Center
Wed 10:02:34 PM 39.8817 -82.8719 North 133 153 3,300 1,065 Climbing Indianapolis Center
Wed 10:03:08 PM 39.9008 -82.8592 27° Northeast 124 143 3,900 1,000 Climbing Indianapolis Center
Wed 10:03:34 PM 39.9125 -82.8483 35° Northeast 128 147 4,300 984 Climbing Indianapolis Center
Wed 10:04:09 PM 39.9308 -82.8339 31° Northeast 127 146 4,900 985 Climbing Indianapolis Center
Wed 10:04:41 PM 39.9478 -82.8222 28° Northeast 129 148 5,400 885 Climbing Indianapolis Center
Wed 10:05:10 PM 39.9631 -82.8086 34° Northeast 132 152 5,800 885 Climbing Indianapolis Center
Wed 10:05:42 PM 39.9806 -82.7989 23° Northeast 133 153 6,300 984 Climbing Indianapolis Center
Wed 10:06:11 PM 39.9958 -82.7842 36° Northeast 133 153 6,800 800 Climbing Indianapolis Center
Wed 10:06:42 PM 40.0117 -82.7725 29° Northeast 135 155 7,100 295 Climbing Indianapolis Center
Wed 10:07:12 PM 40.0294 -82.7572 33° Northeast 139 160 7,100 -98 Level Indianapolis Center
Wed 10:07:43 PM 40.0556 -82.7419 24° Northeast 179 206 7,000  Descending Indianapolis Center
Wed 10:08:13 PM 40.0744 -82.7275 30° Northeast 177 204 7,100 98 Climbing Indianapolis Center
Wed 10:08:44 PM 40.0992 -82.7142 22° Northeast 177 204 7,100  Level Indianapolis Center
Wed 10:09:14 PM 40.1183 -82.7031 24° Northeast 172 198 7,100  Level Indianapolis Center
Wed 10:09:44 PM 40.1406 -82.6914 22° Northeast 166 191 7,100  Level Indianapolis Center
Wed 10:10:16 PM 40.1603 -82.6761 31° Northeast 168 193 7,100 -109 Level Indianapolis Center
Wed 10:10:39 PM 40.1800 -82.6631 27° Northeast 171 197 7,000  Descending Indianapolis Center
Wed 10:11:17 PM 40.2039 -82.6450 30° Northeast 177 204 7,100 98 Climbing Indianapolis Center
Wed 10:11:40 PM 40.2217 -82.6322 29° Northeast 176 203 7,100  Level Indianapolis Center
Wed 10:12:18 PM 40.2475 -82.6144 28° Northeast 175 201 7,100  Level Indianapolis Center
Wed 10:12:41 PM 40.2656 -82.6042 23° Northeast 178 205 7,100  Level Indianapolis Center
Wed 10:13:19 PM 40.2917 -82.5822 33° Northeast 179 206 7,100  Level Indianapolis Center
Wed 10:14:20 PM 40.3369 -82.5519 27° Northeast 183 211 7,100  Level Indianapolis Center
Wed 10:15:21 PM 40.3814 -82.5186 30° Northeast 182 209 7,100  Level Indianapolis Center
Wed 10:16:22 PM 40.4258 -82.4892 27° Northeast 178 205 7,100  Level Indianapolis Center
Wed 10:17:23 PM 40.4692 -82.4564 30° Northeast 177 204 7,100  Level Indianapolis Center
Wed 10:18:24 PM 40.5142 -82.4244 28° Northeast 181 208 7,100  Level Indianapolis Center
Wed 10:19:25 PM 40.5581 -82.3922 29° Northeast 179 206 7,100 -49 Level Indianapolis Center
Wed 10:20:27 PM 40.6028 -82.3606 28° Northeast 180 207 7,000 -61 Descending Indianapolis Center
Wed 10:21:04 PM 40.6353 -82.3397 26° Northeast 181 208 7,000  Level Cleveland Center
Wed 10:22:04 PM 40.6794 -82.3081 29° Northeast 180 207 7,000  Level Cleveland Center
Wed 10:23:05 PM 40.7217 -82.2761 30° Northeast 179 206 7,000  Level Cleveland Center
Wed 10:24:00 PM 40.7639 -82.2472 27° Northeast 178 205 7,000  Level Cleveland Center
Wed 10:25:00 PM 40.8039 -82.2181 29° Northeast 177 204 7,000  Level Cleveland Center
Wed 10:26:07 PM 40.8522 -82.1808 30° Northeast 180 207 7,000  Level Cleveland Center
Wed 10:27:08 PM 40.8964 -82.1517 27° Northeast 177 204 7,000  Level Cleveland Center
Wed 10:28:08 PM 40.9386 -82.1169 32° Northeast 179 206 7,000  Level Cleveland Center
Wed 10:29:03 PM 40.9806 -82.0875 28° Northeast 179 206 7,000  Level Cleveland Center
Wed 10:30:03 PM 41.0250 -82.0556 28° Northeast 179 206 7,000  Level Cleveland Center
Wed 10:31:10 PM 41.0733 -82.0208 28° Northeast 177 204 7,000  Level Cleveland Center
Wed 10:32:11 PM 41.1153 -81.9914 28° Northeast 178 205 7,000  Level Cleveland Center
Wed 10:33:17 PM 41.1639 -81.9539 30° Northeast 178 205 7,000 -90 Level Cleveland Center
Wed 10:34:24 PM 41.2122 -81.9217 27° Northeast 172 198 6,800 -469 Descending Cleveland Center
Wed 10:35:25 PM 41.2564 -81.8814 34° Northeast 193 222 6,000 -645 Descending Cleveland Center
Wed 10:36:25 PM 41.3006 -81.8461 31° Northeast 184 212 5,500 -793 Descending Cleveland Center
Wed 10:37:26 PM 41.3428 -81.8028 38° Northeast 197 227 4,400 -1,181 Descending Cleveland Center
Wed 10:38:32 PM 41.3828 -81.7428 48° Northeast 190 219 3,000 -709 Descending Cleveland Center
Wed 10:39:33 PM 41.4083 -81.6961 54° Northeast 160 184 2,900 -492 Descending Cleveland Center
Wed 10:40:34 PM 41.4603 -81.7136 346° North 205 236 2,000 -835 Descending Cleveland Center
Wed 10:41:28 PM 41.4956 -81.7392 332° Northwest 136 157 1,300 -574 Descending Cleveland Center
Wed 10:42:29 PM 41.5064 -81.7061 66° East 86 99 900 -393 Descending Cleveland Center

Login

Don't have an account? Register now (free) for customized features, flight alerts, and more!